createdAt,value
2022-08-03T00:02:18.638Z,21.15
2022-08-03T00:04:46.868Z,21.12
2022-08-03T00:07:14.984Z,21.11
2022-08-03T00:09:44.527Z,21.07
2022-08-03T00:12:12.826Z,21.00
2022-08-03T00:14:40.993Z,20.96
2022-08-03T00:17:10.040Z,20.86
2022-08-03T00:19:38.125Z,20.63
2022-08-03T00:22:06.248Z,20.30
2022-08-03T00:24:36.335Z,20.05
2022-08-03T00:27:05.948Z,19.90
2022-08-03T00:29:34.028Z,19.84
2022-08-03T00:32:22.575Z,19.77
2022-08-03T00:34:57.854Z,19.72
2022-08-03T00:37:41.073Z,19.71
2022-08-03T00:40:10.419Z,19.70
2022-08-03T00:42:49.280Z,19.67
2022-08-03T00:45:17.871Z,19.61
2022-08-03T00:47:46.275Z,19.38
2022-08-03T00:50:14.511Z,19.17
2022-08-03T00:52:43.069Z,19.09
2022-08-03T00:55:11.833Z,19.09
2022-08-03T00:57:40.919Z,19.06
2022-08-03T01:00:14.163Z,19.05
2022-08-03T01:02:42.709Z,19.05
2022-08-03T01:05:11.491Z,19.08
2022-08-03T01:07:47.827Z,19.09
2022-08-03T01:10:24.742Z,18.99
2022-08-03T01:13:00.192Z,19.08
2022-08-03T01:15:36.517Z,19.11
2022-08-03T01:18:11.027Z,19.10
2022-08-03T01:20:44.931Z,19.26
2022-08-03T01:23:41.524Z,19.29
2022-08-03T01:26:36.543Z,19.29
2022-08-03T01:29:26.464Z,19.35
2022-08-03T01:32:58.899Z,19.38
2022-08-03T01:34:57.451Z,19.37
2022-08-03T01:37:33.817Z,19.38
2022-08-03T01:40:10.111Z,19.39
2022-08-03T01:42:41.748Z,19.28
2022-08-03T01:45:15.163Z,19.30
2022-08-03T01:47:47.606Z,19.30
2022-08-03T01:50:18.277Z,19.33
2022-08-03T01:52:49.871Z,19.30
2022-08-03T01:55:21.746Z,19.30
2022-08-03T01:58:06.040Z,19.29
2022-08-03T02:00:37.607Z,19.31
2022-08-03T02:03:10.560Z,19.44
2022-08-03T02:05:42.122Z,19.60
2022-08-03T02:08:14.895Z,19.64
2022-08-03T02:10:46.380Z,19.63
2022-08-03T02:13:17.254Z,19.61
2022-08-03T02:15:48.552Z,19.57
2022-08-03T02:18:21.950Z,19.52
2022-08-03T02:20:52.083Z,19.58
2022-08-03T02:23:21.632Z,19.56
2022-08-03T02:25:55.035Z,19.54
2022-08-03T02:28:27.226Z,19.49
2022-08-03T02:30:57.978Z,19.50
2022-08-03T02:33:33.854Z,19.64
2022-08-03T02:36:04.660Z,19.55
2022-08-03T02:38:36.524Z,19.44
2022-08-03T02:41:09.676Z,19.36
2022-08-03T02:44:05.921Z,19.42
2022-08-03T02:46:34.942Z,19.33
2022-08-03T02:49:49.574Z,19.25
2022-08-03T02:51:57.861Z,19.17
2022-08-03T02:54:28.433Z,19.11
2022-08-03T02:57:00.542Z,19.11
2022-08-03T02:59:33.366Z,19.07
2022-08-03T03:02:04.247Z,19.01
2022-08-03T03:04:35.834Z,19.08
2022-08-03T03:07:05.773Z,19.05
2022-08-03T03:09:43.153Z,19.01
2022-08-03T03:12:13.993Z,18.97
2022-08-03T03:14:42.568Z,18.97
2022-08-03T03:17:12.527Z,18.90
2022-08-03T03:19:45.347Z,18.86
2022-08-03T03:22:15.408Z,18.83
2022-08-03T03:24:44.181Z,18.81
2022-08-03T03:27:16.602Z,18.77
2022-08-03T03:29:45.361Z,18.74
2022-08-03T03:32:13.864Z,18.71
2022-08-03T03:34:44.317Z,18.69
2022-08-03T03:37:12.592Z,18.69
2022-08-03T03:39:40.957Z,18.69
2022-08-03T03:42:09.390Z,18.66
2022-08-03T03:44:37.633Z,18.64
2022-08-03T03:47:05.786Z,18.64
2022-08-03T03:49:34.236Z,18.67
2022-08-03T03:52:03.793Z,18.92
2022-08-03T03:54:40.985Z,20.00
2022-08-03T03:57:13.029Z,21.04
2022-08-03T03:59:42.950Z,22.04
2022-08-03T04:02:12.611Z,22.93
2022-08-03T04:04:57.934Z,23.63
2022-08-03T04:07:46.358Z,24.62
2022-08-03T04:10:35.999Z,25.46
2022-08-03T04:13:08.314Z,26.30
2022-08-03T04:15:38.487Z,27.07
2022-08-03T04:18:09.853Z,27.74
2022-08-03T04:20:40.037Z,28.18
2022-08-03T04:23:14.207Z,28.83
2022-08-03T04:25:45.305Z,29.53
2022-08-03T04:28:30.981Z,29.99
2022-08-03T04:31:00.873Z,30.23
2022-08-03T04:33:33.118Z,31.06
2022-08-03T04:36:07.932Z,31.73
2022-08-03T04:38:40.197Z,31.02
2022-08-03T04:41:10.148Z,31.08
2022-08-03T04:43:40.902Z,31.52
2022-08-03T04:46:10.300Z,31.75
2022-08-03T04:48:41.287Z,31.74
2022-08-03T04:51:13.128Z,33.24
2022-08-03T04:53:43.970Z,34.31
2022-08-03T04:56:12.103Z,33.14
2022-08-03T04:58:40.327Z,32.53
2022-08-03T05:01:08.828Z,32.56
2022-08-03T05:03:36.938Z,32.99
2022-08-03T05:06:11.091Z,34.62
2022-08-03T05:08:47.070Z,33.74
2022-08-03T05:11:20.289Z,34.46
2022-08-03T05:13:49.182Z,34.35
2022-08-03T05:16:17.297Z,34.85
2022-08-03T05:18:46.192Z,33.55
2022-08-03T05:21:16.850Z,33.77
2022-08-03T05:23:45.691Z,34.56
2022-08-03T05:26:13.771Z,35.85
2022-08-03T05:28:50.942Z,35.44
2022-08-03T05:31:20.203Z,36.22
2022-08-03T05:33:49.138Z,37.81
2022-08-03T05:36:17.545Z,38.45
2022-08-03T05:38:46.014Z,38.91
2022-08-03T05:41:22.649Z,37.21
2022-08-03T05:43:52.858Z,38.53
2022-08-03T05:46:21.071Z,39.29
2022-08-03T05:48:49.585Z,38.49
2022-08-03T05:51:17.735Z,38.14
2022-08-03T05:53:46.557Z,38.44
2022-08-03T05:56:16.443Z,37.53
2022-08-03T05:58:46.868Z,37.56
2022-08-03T06:01:17.307Z,37.91
2022-08-03T06:03:45.632Z,38.00
2022-08-03T06:06:13.672Z,36.85
2022-08-03T06:08:42.230Z,36.01
2022-08-03T06:11:10.365Z,36.10
2022-08-03T06:13:38.875Z,36.66
2022-08-03T06:16:07.359Z,35.85
2022-08-03T06:18:37.626Z,37.06
2022-08-03T06:21:14.405Z,36.69
2022-08-03T06:23:54.397Z,35.58
2022-08-03T06:26:25.500Z,35.16
2022-08-03T06:28:55.026Z,34.87
2022-08-03T06:31:32.826Z,33.72
2022-08-03T06:34:33.267Z,34.44
2022-08-03T06:36:59.962Z,34.41
2022-08-03T06:39:30.583Z,34.31
2022-08-03T06:41:59.121Z,33.06
2022-08-03T06:44:27.298Z,32.56
2022-08-03T06:46:56.024Z,32.31
2022-08-03T06:49:28.558Z,32.60
2022-08-03T06:52:03.250Z,32.26
2022-08-03T06:54:35.715Z,32.24
2022-08-03T06:57:04.233Z,31.95
2022-08-03T07:00:10.938Z,31.96
2022-08-03T07:02:20.645Z,32.28
2022-08-03T07:04:50.853Z,31.62
2022-08-03T07:07:19.521Z,31.55
2022-08-03T07:09:56.753Z,31.64
2022-08-03T07:12:28.013Z,31.54
2022-08-03T07:15:00.671Z,31.65
2022-08-03T07:17:30.643Z,31.88
2022-08-03T07:20:00.721Z,31.97
2022-08-03T07:22:29.138Z,32.41
2022-08-03T07:24:57.779Z,30.98
2022-08-03T07:27:27.093Z,31.18
2022-08-03T07:29:55.409Z,31.41
2022-08-03T07:32:23.576Z,31.00
2022-08-03T07:34:53.112Z,30.72
2022-08-03T07:37:25.637Z,30.66
2022-08-03T07:39:53.757Z,31.13
2022-08-03T07:42:23.453Z,31.25
2022-08-03T07:44:51.589Z,31.53
2022-08-03T07:47:22.730Z,31.16
2022-08-03T07:49:51.074Z,29.97
2022-08-03T07:52:36.793Z,30.23
2022-08-03T07:55:07.687Z,30.63
2022-08-03T07:57:36.331Z,30.54
2022-08-03T08:00:09.193Z,30.28
2022-08-03T08:02:37.264Z,30.32
2022-08-03T08:05:06.204Z,30.39
2022-08-03T08:07:34.600Z,30.34
2022-08-03T08:10:02.785Z,30.15
2022-08-03T08:12:32.265Z,30.23
2022-08-03T08:15:00.310Z,30.30
2022-08-03T08:17:28.824Z,30.22
2022-08-03T08:19:56.970Z,30.36
2022-08-03T08:22:30.117Z,30.36
2022-08-03T08:24:59.389Z,30.46
2022-08-03T08:27:27.614Z,30.54
2022-08-03T08:30:02.518Z,30.57
2022-08-03T08:32:37.535Z,30.46
2022-08-03T08:35:06.227Z,30.36
2022-08-03T08:37:35.151Z,30.04
2022-08-03T08:40:03.680Z,30.02
2022-08-03T08:42:32.761Z,30.23
2022-08-03T08:45:05.311Z,30.12
2022-08-03T08:47:51.549Z,30.11
2022-08-03T08:50:27.175Z,30.39
2022-08-03T08:52:57.638Z,29.97
2022-08-03T08:55:26.222Z,30.18
2022-08-03T08:58:00.284Z,30.43
2022-08-03T09:00:31.243Z,30.69
2022-08-03T09:02:59.970Z,30.51
2022-08-03T09:05:54.659Z,30.96
2022-08-03T09:08:16.854Z,30.83
2022-08-03T09:10:44.960Z,30.78
2022-08-03T09:13:13.114Z,30.87
2022-08-03T09:15:42.658Z,30.74
2022-08-03T09:18:32.602Z,30.75
2022-08-03T09:21:30.216Z,30.57
2022-08-03T09:24:05.694Z,30.53
2022-08-03T09:26:36.264Z,30.51
2022-08-03T09:29:11.217Z,30.67
2022-08-03T09:31:45.477Z,30.66
2022-08-03T09:34:15.928Z,30.94
2022-08-03T09:36:46.013Z,31.41
2022-08-03T09:39:16.140Z,31.39
2022-08-03T09:41:46.370Z,31.20
2022-08-03T09:44:24.171Z,31.39
2022-08-03T09:46:57.406Z,31.17
2022-08-03T09:49:26.251Z,31.11
2022-08-03T09:52:33.607Z,31.05
2022-08-03T09:54:44.049Z,30.93
2022-08-03T09:57:23.274Z,31.06
2022-08-03T09:59:54.966Z,31.18
2022-08-03T10:02:34.425Z,31.27
2022-08-03T10:05:02.518Z,31.20
2022-08-03T10:07:30.668Z,31.25
2022-08-03T10:10:30.467Z,31.44
2022-08-03T10:12:49.587Z,31.40
2022-08-03T10:16:22.287Z,31.58
2022-08-03T10:18:09.043Z,31.82
2022-08-03T10:20:39.390Z,31.74
2022-08-03T10:23:09.372Z,31.84
2022-08-03T10:25:40.862Z,31.45
2022-08-03T10:28:13.699Z,31.24
2022-08-03T10:30:45.362Z,31.24
2022-08-03T10:33:49.710Z,31.18
2022-08-03T10:36:09.714Z,31.12
2022-08-03T10:38:42.226Z,31.29
2022-08-03T10:41:12.078Z,31.35
2022-08-03T10:43:49.197Z,31.04
2022-08-03T10:46:20.796Z,31.57
2022-08-03T10:48:52.633Z,32.04
2022-08-03T10:51:22.101Z,32.37
2022-08-03T10:53:54.553Z,32.63
2022-08-03T10:57:13.470Z,32.86
2022-08-03T11:00:00.622Z,32.60
2022-08-03T11:03:02.152Z,32.74
2022-08-03T11:05:33.402Z,32.92
2022-08-03T11:08:30.839Z,32.59
2022-08-03T11:11:02.087Z,33.21
2022-08-03T11:13:34.055Z,33.26
2022-08-03T11:16:21.948Z,32.77
2022-08-03T11:18:58.831Z,32.57
2022-08-03T11:21:59.245Z,32.48
2022-08-03T11:25:01.959Z,32.74
2022-08-03T11:27:32.964Z,33.04
2022-08-03T11:30:07.448Z,32.93
2022-08-03T11:33:00.031Z,32.52
2022-08-03T11:35:30.344Z,32.28
2022-08-03T11:38:11.902Z,32.39
2022-08-03T11:40:42.759Z,32.45
2022-08-03T11:43:32.066Z,32.77
2022-08-03T11:46:01.289Z,33.08
2022-08-03T11:48:35.582Z,33.32
2022-08-03T11:51:04.821Z,33.65
2022-08-03T11:53:42.201Z,33.53
2022-08-03T11:56:12.656Z,33.60
2022-08-03T11:59:01.718Z,33.34
2022-08-03T12:01:37.683Z,33.41
2022-08-03T12:04:07.137Z,33.32
2022-08-03T12:06:54.749Z,33.35
2022-08-03T12:09:24.240Z,32.59
2022-08-03T12:11:59.444Z,32.23
2022-08-03T12:14:50.242Z,31.91
2022-08-03T12:17:17.959Z,32.33
2022-08-03T12:19:46.389Z,32.17
2022-08-03T12:22:16.166Z,32.64
2022-08-03T12:24:47.882Z,32.81
2022-08-03T12:27:24.970Z,32.66
2022-08-03T12:29:58.496Z,32.70
2022-08-03T12:32:28.391Z,33.09
2022-08-03T12:35:01.286Z,33.06
2022-08-03T12:37:30.832Z,33.15
2022-08-03T12:40:10.619Z,32.76
2022-08-03T12:42:40.730Z,32.40
2022-08-03T12:45:23.306Z,32.77
2022-08-03T12:47:56.648Z,32.77
2022-08-03T12:50:26.094Z,32.74
2022-08-03T12:52:54.844Z,33.11
2022-08-03T12:55:27.732Z,33.40
2022-08-03T12:57:55.820Z,33.11
2022-08-03T13:00:29.471Z,33.31
2022-08-03T13:03:38.538Z,33.41
2022-08-03T13:05:52.250Z,33.51
2022-08-03T13:08:21.316Z,33.36
2022-08-03T13:10:51.532Z,33.45
2022-08-03T13:13:20.888Z,33.55
2022-08-03T13:15:49.283Z,33.67
2022-08-03T13:18:17.641Z,33.73
2022-08-03T13:20:45.981Z,33.68
2022-08-03T13:23:22.426Z,33.64
2022-08-03T13:25:55.291Z,33.38
2022-08-03T13:28:24.351Z,33.44
2022-08-03T13:30:54.411Z,33.51
2022-08-03T13:33:22.640Z,33.40
2022-08-03T13:35:50.836Z,33.47
2022-08-03T13:38:18.991Z,33.36
2022-08-03T13:40:52.941Z,33.32
2022-08-03T13:43:22.578Z,33.25
2022-08-03T13:45:54.874Z,33.05
2022-08-03T13:48:36.909Z,32.99
2022-08-03T13:51:21.722Z,32.99
2022-08-03T13:53:53.766Z,33.32
2022-08-03T13:56:23.239Z,33.52
2022-08-03T13:58:51.471Z,33.57
2022-08-03T14:01:34.307Z,33.18
2022-08-03T14:04:15.918Z,32.59
2022-08-03T14:06:50.505Z,32.46
2022-08-03T14:09:18.697Z,32.64
2022-08-03T14:12:07.226Z,32.75
2022-08-03T14:14:36.594Z,32.66
2022-08-03T14:17:05.309Z,32.89
2022-08-03T14:19:33.551Z,32.93
2022-08-03T14:22:21.246Z,33.07
2022-08-03T14:24:49.603Z,32.93
2022-08-03T14:27:19.139Z,33.09
2022-08-03T14:29:47.195Z,33.22
2022-08-03T14:32:15.562Z,33.30
2022-08-03T14:34:43.694Z,33.19
2022-08-03T14:37:11.818Z,32.82
2022-08-03T14:42:29.851Z,32.64
2022-08-03T14:45:03.444Z,32.73
2022-08-03T14:47:34.451Z,32.62
2022-08-03T14:50:38.500Z,32.70
2022-08-03T14:53:09.980Z,32.74
2022-08-03T14:55:49.373Z,32.62
2022-08-03T14:58:21.875Z,32.61
2022-08-03T15:00:51.955Z,32.66
2022-08-03T15:03:23.760Z,32.41
2022-08-03T15:05:53.069Z,32.27
2022-08-03T15:08:21.399Z,32.45
2022-08-03T15:10:49.771Z,32.37
2022-08-03T15:13:20.669Z,32.09
2022-08-03T15:15:49.789Z,32.08
2022-08-03T15:18:18.086Z,32.03
2022-08-03T15:20:47.254Z,32.07
2022-08-03T15:23:16.673Z,32.11
2022-08-03T15:26:04.295Z,32.16
2022-08-03T15:28:37.331Z,31.96
2022-08-03T15:31:06.674Z,31.70
2022-08-03T15:33:35.289Z,31.82
2022-08-03T15:36:04.043Z,31.75
2022-08-03T15:38:32.211Z,31.73
2022-08-03T15:41:00.497Z,31.75
2022-08-03T15:43:28.706Z,31.67
2022-08-03T15:46:27.832Z,31.65
2022-08-03T15:48:47.112Z,31.72
2022-08-03T15:51:15.493Z,31.61
2022-08-03T15:53:43.861Z,31.59
2022-08-03T15:56:16.834Z,31.44
2022-08-03T15:59:03.539Z,31.33
2022-08-03T16:01:36.983Z,31.05
2022-08-03T16:04:05.383Z,31.01
2022-08-03T16:06:35.155Z,31.06
2022-08-03T16:09:05.860Z,31.03
2022-08-03T16:11:52.591Z,31.01
2022-08-03T16:14:32.350Z,30.90
2022-08-03T16:17:05.464Z,30.75
2022-08-03T16:19:33.631Z,30.55
2022-08-03T16:22:01.777Z,30.39
2022-08-03T16:24:31.726Z,30.26
2022-08-03T16:27:04.128Z,30.24
2022-08-03T16:29:33.065Z,30.24
2022-08-03T16:32:09.312Z,30.36
2022-08-03T16:34:39.859Z,30.32
2022-08-03T16:37:36.433Z,30.30
2022-08-03T16:39:57.188Z,30.29
2022-08-03T16:42:25.375Z,30.37
2022-08-03T16:44:53.550Z,30.30
2022-08-03T16:47:22.949Z,30.32
2022-08-03T16:49:56.305Z,30.27
2022-08-03T16:52:25.603Z,30.14
2022-08-03T16:54:55.650Z,29.92
2022-08-03T16:57:59.582Z,29.81
2022-08-03T17:00:33.874Z,29.72
2022-08-03T17:03:18.823Z,29.66
2022-08-03T17:05:51.072Z,29.59
2022-08-03T17:08:27.259Z,29.48
2022-08-03T17:10:57.393Z,29.47
2022-08-03T17:13:39.599Z,29.38
2022-08-03T17:16:15.127Z,29.31
2022-08-03T17:18:51.096Z,29.28
2022-08-03T17:21:29.741Z,29.20
2022-08-03T17:24:12.320Z,29.12
2022-08-03T17:26:44.785Z,29.05
2022-08-03T17:29:15.438Z,28.98
2022-08-03T17:31:49.076Z,28.88
2022-08-03T17:34:18.899Z,28.80
2022-08-03T17:37:06.000Z,28.74
2022-08-03T17:39:58.145Z,28.64
2022-08-03T17:42:38.931Z,28.59
2022-08-03T17:45:08.258Z,28.51
2022-08-03T17:47:43.983Z,28.41
2022-08-03T17:50:24.148Z,28.33
2022-08-03T17:53:07.702Z,28.26
2022-08-03T17:55:55.379Z,28.14
2022-08-03T17:58:41.278Z,28.02
2022-08-03T18:02:00.531Z,27.91
2022-08-03T18:04:30.202Z,27.81
2022-08-03T18:07:11.777Z,27.74
2022-08-03T18:10:04.239Z,27.63
2022-08-03T18:12:45.075Z,27.55
2022-08-03T18:15:21.450Z,27.45
2022-08-03T18:18:02.289Z,27.39
2022-08-03T18:20:41.263Z,27.32
2022-08-03T18:23:25.367Z,27.24
2022-08-03T18:26:04.691Z,27.20
2022-08-03T18:28:33.524Z,27.15
2022-08-03T18:31:06.005Z,27.12
2022-08-03T18:36:29.945Z,27.05
2022-08-03T18:39:00.126Z,26.94
2022-08-03T18:41:32.208Z,26.96
2022-08-03T18:44:08.915Z,26.89
2022-08-03T18:47:07.006Z,26.84
2022-08-03T18:49:43.492Z,26.80
2022-08-03T18:52:18.023Z,26.73
2022-08-03T18:55:08.440Z,26.61
2022-08-03T18:57:51.435Z,26.52
2022-08-03T19:00:23.879Z,26.49
2022-08-03T19:02:59.093Z,26.42
2022-08-03T19:05:56.235Z,26.37
2022-08-03T19:08:28.336Z,26.32
2022-08-03T19:11:03.624Z,26.26
2022-08-03T19:13:50.049Z,26.11
2022-08-03T19:16:28.643Z,26.01
2022-08-03T19:19:00.693Z,25.92
2022-08-03T19:21:30.877Z,25.90
2022-08-03T19:24:06.613Z,25.89
2022-08-03T19:26:39.742Z,25.70
2022-08-03T19:29:15.199Z,25.55
2022-08-03T19:31:59.148Z,25.46
2022-08-03T19:34:30.185Z,25.37
2022-08-03T19:36:59.759Z,25.38
2022-08-03T19:39:28.179Z,25.40
2022-08-03T19:42:12.258Z,25.41
2022-08-03T19:44:57.933Z,25.36
2022-08-03T19:47:31.579Z,25.33
2022-08-03T19:50:10.330Z,25.22
2022-08-03T19:52:48.731Z,25.07
2022-08-03T19:55:21.306Z,24.97
2022-08-03T19:57:55.100Z,24.89
2022-08-03T20:00:30.570Z,24.83
2022-08-03T20:03:05.673Z,24.69
2022-08-03T20:05:51.946Z,24.69
2022-08-03T20:08:22.571Z,24.64
2022-08-03T20:10:51.377Z,24.63
2022-08-03T20:13:21.497Z,24.51
2022-08-03T20:15:58.170Z,24.34
2022-08-03T20:18:29.462Z,24.28
2022-08-03T20:21:01.121Z,24.22
2022-08-03T20:23:37.331Z,24.15
2022-08-03T20:26:06.446Z,24.04
2022-08-03T20:28:50.712Z,24.09
2022-08-03T20:31:32.591Z,24.26
2022-08-03T20:34:04.982Z,24.39
2022-08-03T20:36:35.950Z,24.36
2022-08-03T20:39:06.710Z,24.48
2022-08-03T20:41:36.321Z,24.71
2022-08-03T20:44:05.625Z,24.79
2022-08-03T20:46:53.470Z,24.80
2022-08-03T20:49:28.164Z,24.80
2022-08-03T20:51:56.279Z,24.89
2022-08-03T20:54:31.290Z,24.96
2022-08-03T20:57:03.977Z,25.08
2022-08-03T20:59:50.694Z,25.10
2022-08-03T21:02:29.603Z,25.07
2022-08-03T21:05:03.672Z,25.26
2022-08-03T21:08:04.547Z,25.26
2022-08-03T21:10:30.075Z,25.25
2022-08-03T21:13:04.309Z,27.10
2022-08-03T21:16:12.309Z,25.09
2022-08-03T21:18:46.935Z,25.00
2022-08-03T21:21:17.114Z,24.92
2022-08-03T21:23:48.668Z,24.76
2022-08-03T21:26:17.489Z,24.58
2022-08-03T21:28:47.553Z,24.40
2022-08-03T21:31:24.282Z,24.27
2022-08-03T21:33:57.736Z,24.11
2022-08-03T21:36:27.712Z,23.96
2022-08-03T21:38:57.799Z,23.83
2022-08-03T21:41:26.981Z,23.75
2022-08-03T21:43:55.314Z,23.59
2022-08-03T21:46:24.902Z,23.63
2022-08-03T21:50:06.832Z,23.62
2022-08-03T21:51:50.900Z,23.44
2022-08-03T21:54:21.819Z,23.40
2022-08-03T21:56:52.367Z,23.31
2022-08-03T21:59:24.350Z,23.20
2022-08-03T22:01:55.429Z,23.09
2022-08-03T22:04:54.948Z,22.96
2022-08-03T22:07:17.923Z,22.84
2022-08-03T22:09:51.443Z,22.77
2022-08-03T22:12:22.999Z,22.67
2022-08-03T22:15:00.244Z,22.58
2022-08-03T22:17:55.190Z,22.50
2022-08-03T22:20:21.224Z,22.48
2022-08-03T22:22:55.142Z,22.42
2022-08-03T22:25:29.193Z,22.38
2022-08-03T22:27:59.219Z,22.31
2022-08-03T22:30:27.628Z,22.27
2022-08-03T22:32:57.751Z,22.23
2022-08-03T22:35:28.778Z,22.16
2022-08-03T22:37:58.612Z,22.15
2022-08-03T22:40:28.112Z,22.09
2022-08-03T22:42:56.496Z,22.03
2022-08-03T22:46:07.647Z,21.98
2022-08-03T22:48:14.725Z,21.95
2022-08-03T22:50:45.332Z,21.97
2022-08-03T22:53:17.994Z,21.91
2022-08-03T22:55:46.394Z,21.84
2022-08-03T22:58:16.821Z,21.80
2022-08-03T23:00:53.657Z,21.71
2022-08-03T23:03:59.923Z,21.67
2022-08-03T23:06:20.336Z,21.63
2022-08-03T23:08:50.108Z,21.57
2022-08-03T23:11:19.661Z,21.50
2022-08-03T23:13:49.839Z,21.42
2022-08-03T23:16:28.874Z,21.40
2022-08-03T23:18:59.243Z,21.33
2022-08-03T23:21:53.466Z,21.30
2022-08-03T23:24:29.870Z,21.22
2022-08-03T23:26:59.430Z,21.18
2022-08-03T23:29:29.148Z,21.18
2022-08-03T23:31:59.499Z,21.07
2022-08-03T23:34:46.478Z,20.86
2022-08-03T23:37:16.201Z,20.77
2022-08-03T23:39:47.168Z,20.70
2022-08-03T23:42:19.161Z,20.61
2022-08-03T23:44:47.947Z,20.71
2022-08-03T23:47:16.189Z,20.74
2022-08-03T23:49:44.715Z,20.78
2022-08-03T23:52:21.988Z,20.84
2022-08-03T23:55:04.190Z,20.89
2022-08-03T23:57:42.090Z,20.87
